<?xml version="1.0" encoding="UTF-8" standalone="no" ?>
<gpx xmlns="http://www.topografix.com/GPX/1/1" xmlns:xsi="http://www.w3.org/2001/XMLSchema-instance" xsi:schemaLocation="http://www.topografix.com/GPX/1/1 http://www.topografix.com/GPX/1/1/gpx.xsd" version="1.1" creator="VisuGPX - https://www.visugpx.com">
  <metadata>
    <name>77 -Rochers d'Avon 2018</name>
    <desc><![CDATA[Départ  au Parking Maintenon sur la D58.Promenade courte,avec beaucoup de beaux rochers et point de vue sur Avon.]]></desc>
  </metadata>
  <trk>
    <name><![CDATA[20180623132529-A33dt]]></name>
    <trkseg>
      <trkpt lat="48.39191" lon="2.70373">
        <ele>93</ele>
        <time>2018-06-23T07:11:58Z</time>
      </trkpt>
      <trkpt lat="48.39191" lon="2.70373">
        <ele>93</ele>
        <time>2018-06-23T07:11:59Z</time>
      </trkpt>
      <trkpt lat="48.39191" lon="2.70373">
        <ele>93</ele>
        <time>2018-06-23T07:12:02Z</time>
      </trkpt>
      <trkpt lat="48.39191" lon="2.70373">
        <ele>93</ele>
        <time>2018-06-23T07:12:03Z</time>
      </trkpt>
      <trkpt lat="48.39189" lon="2.70376">
        <ele>93</ele>
        <time>2018-06-23T07:12:34Z</time>
      </trkpt>
      <trkpt lat="48.39192" lon="2.7038">
        <ele>93</ele>
        <time>2018-06-23T07:13:04Z</time>
      </trkpt>
      <trkpt lat="48.39188" lon="2.70385">
        <ele>93</ele>
        <time>2018-06-23T07:13:12Z</time>
      </trkpt>
      <trkpt lat="48.39186" lon="2.70385">
        <ele>93</ele>
        <time>2018-06-23T07:13:13Z</time>
      </trkpt>
      <trkpt lat="48.39185" lon="2.70386">
        <ele>93</ele>
        <time>2018-06-23T07:13:14Z</time>
      </trkpt>
      <trkpt lat="48.39182" lon="2.70384">
        <ele>93</ele>
        <time>2018-06-23T07:13:30Z</time>
      </trkpt>
      <trkpt lat="48.39191" lon="2.70378">
        <ele>93</ele>
        <time>2018-06-23T07:13:40Z</time>
      </trkpt>
      <trkpt lat="48.39211" lon="2.70375">
        <ele>93</ele>
        <time>2018-06-23T07:13:58Z</time>
      </trkpt>
      <trkpt lat="48.39218" lon="2.70374">
        <ele>93</ele>
        <time>2018-06-23T07:14:04Z</time>
      </trkpt>
      <trkpt lat="48.3922" lon="2.70374">
        <ele>93</ele>
        <time>2018-06-23T07:14:06Z</time>
      </trkpt>
      <trkpt lat="48.39222" lon="2.70374">
        <ele>93</ele>
        <time>2018-06-23T07:14:07Z</time>
      </trkpt>
      <trkpt lat="48.39235" lon="2.70368">
        <ele>93</ele>
        <time>2018-06-23T07:14:17Z</time>
      </trkpt>
      <trkpt lat="48.39253" lon="2.70363">
        <ele>92</ele>
        <time>2018-06-23T07:14:31Z</time>
      </trkpt>
      <trkpt lat="48.39259" lon="2.70363">
        <ele>92</ele>
        <time>2018-06-23T07:14:36Z</time>
      </trkpt>
      <trkpt lat="48.3926" lon="2.70364">
        <ele>92</ele>
        <time>2018-06-23T07:14:37Z</time>
      </trkpt>
      <trkpt lat="48.39262" lon="2.70369">
        <ele>92</ele>
        <time>2018-06-23T07:14:49Z</time>
      </trkpt>
      <trkpt lat="48.39263" lon="2.70369">
        <ele>92</ele>
        <time>2018-06-23T07:14:50Z</time>
      </trkpt>
      <trkpt lat="48.39264" lon="2.70368">
        <ele>92</ele>
        <time>2018-06-23T07:14:51Z</time>
      </trkpt>
      <trkpt lat="48.39266" lon="2.70367">
        <ele>92</ele>
        <time>2018-06-23T07:14:52Z</time>
      </trkpt>
      <trkpt lat="48.39267" lon="2.70366">
        <ele>92</ele>
        <time>2018-06-23T07:14:53Z</time>
      </trkpt>
      <trkpt lat="48.39268" lon="2.70365">
        <ele>92</ele>
        <time>2018-06-23T07:14:54Z</time>
      </trkpt>
      <trkpt lat="48.3927" lon="2.70364">
        <ele>92</ele>
        <time>2018-06-23T07:14:55Z</time>
      </trkpt>
      <trkpt lat="48.39272" lon="2.70363">
        <ele>92</ele>
        <time>2018-06-23T07:14:57Z</time>
      </trkpt>
      <trkpt lat="48.39288" lon="2.70355">
        <ele>92</ele>
        <time>2018-06-23T07:15:10Z</time>
      </trkpt>
      <trkpt lat="48.39302" lon="2.70354">
        <ele>92</ele>
        <time>2018-06-23T07:15:25Z</time>
      </trkpt>
      <trkpt lat="48.39303" lon="2.70353">
        <ele>92</ele>
        <time>2018-06-23T07:15:26Z</time>
      </trkpt>
      <trkpt lat="48.39304" lon="2.70353">
        <ele>92</ele>
        <time>2018-06-23T07:15:27Z</time>
      </trkpt>
      <trkpt lat="48.39306" lon="2.70351">
        <ele>92</ele>
        <time>2018-06-23T07:15:29Z</time>
      </trkpt>
      <trkpt lat="48.39322" lon="2.70344">
        <ele>91</ele>
        <time>2018-06-23T07:15:42Z</time>
      </trkpt>
      <trkpt lat="48.39332" lon="2.70339">
        <ele>91</ele>
        <time>2018-06-23T07:15:51Z</time>
      </trkpt>
      <trkpt lat="48.39334" lon="2.7034">
        <ele>91</ele>
        <time>2018-06-23T07:15:53Z</time>
      </trkpt>
      <trkpt lat="48.39336" lon="2.70339">
        <ele>91</ele>
        <time>2018-06-23T07:15:54Z</time>
      </trkpt>
      <trkpt lat="48.39349" lon="2.70336">
        <ele>92</ele>
        <time>2018-06-23T07:16:06Z</time>
      </trkpt>
      <trkpt lat="48.39359" lon="2.7034">
        <ele>92</ele>
        <time>2018-06-23T07:16:17Z</time>
      </trkpt>
      <trkpt lat="48.39359" lon="2.70341">
        <ele>92</ele>
        <time>2018-06-23T07:16:18Z</time>
      </trkpt>
      <trkpt lat="48.3936" lon="2.70343">
        <ele>92</ele>
        <time>2018-06-23T07:16:19Z</time>
      </trkpt>
      <trkpt lat="48.3936" lon="2.70342">
        <ele>92</ele>
        <time>2018-06-23T07:16:35Z</time>
      </trkpt>
      <trkpt lat="48.39364" lon="2.70333">
        <ele>91</ele>
        <time>2018-06-23T07:16:49Z</time>
      </trkpt>
      <trkpt lat="48.39368" lon="2.70326">
        <ele>91</ele>
        <time>2018-06-23T07:16:54Z</time>
      </trkpt>
      <trkpt lat="48.39369" lon="2.70325">
        <ele>91</ele>
        <time>2018-06-23T07:16:55Z</time>
      </trkpt>
      <trkpt lat="48.39371" lon="2.70323">
        <ele>91</ele>
        <time>2018-06-23T07:16:58Z</time>
      </trkpt>
      <trkpt lat="48.39373" lon="2.70322">
        <ele>91</ele>
        <time>2018-06-23T07:17:00Z</time>
      </trkpt>
      <trkpt lat="48.39376" lon="2.70324">
        <ele>91</ele>
        <time>2018-06-23T07:17:04Z</time>
      </trkpt>
      <trkpt lat="48.39377" lon="2.70324">
        <ele>91</ele>
        <time>2018-06-23T07:17:05Z</time>
      </trkpt>
      <trkpt lat="48.39378" lon="2.70323">
        <ele>91</ele>
        <time>2018-06-23T07:17:06Z</time>
      </trkpt>
      <trkpt lat="48.3938" lon="2.70322">
        <ele>91</ele>
        <time>2018-06-23T07:17:07Z</time>
      </trkpt>
      <trkpt lat="48.39381" lon="2.70322">
        <ele>91</ele>
        <time>2018-06-23T07:17:08Z</time>
      </trkpt>
      <trkpt lat="48.39382" lon="2.70321">
        <ele>91</ele>
        <time>2018-06-23T07:17:09Z</time>
      </trkpt>
      <trkpt lat="48.39383" lon="2.7032">
        <ele>91</ele>
        <time>2018-06-23T07:17:10Z</time>
      </trkpt>
      <trkpt lat="48.39385" lon="2.70319">
        <ele>91</ele>
        <time>2018-06-23T07:17:12Z</time>
      </trkpt>
      <trkpt lat="48.39397" lon="2.70318">
        <ele>92</ele>
        <time>2018-06-23T07:17:23Z</time>
      </trkpt>
      <trkpt lat="48.39409" lon="2.70317">
        <ele>92</ele>
        <time>2018-06-23T07:17:34Z</time>
      </trkpt>
      <trkpt lat="48.39412" lon="2.70317">
        <ele>92</ele>
        <time>2018-06-23T07:17:37Z</time>
      </trkpt>
      <trkpt lat="48.39422" lon="2.70313">
        <ele>92</ele>
        <time>2018-06-23T07:17:46Z</time>
      </trkpt>
      <trkpt lat="48.39432" lon="2.7031">
        <ele>92</ele>
        <time>2018-06-23T07:17:55Z</time>
      </trkpt>
      <trkpt lat="48.39442" lon="2.70311">
        <ele>92</ele>
        <time>2018-06-23T07:18:08Z</time>
      </trkpt>
      <trkpt lat="48.3944" lon="2.70316">
        <ele>92</ele>
        <time>2018-06-23T07:18:33Z</time>
      </trkpt>
      <trkpt lat="48.3944" lon="2.70329">
        <ele>92</ele>
        <time>2018-06-23T07:18:43Z</time>
      </trkpt>
      <trkpt lat="48.39441" lon="2.70334">
        <ele>93</ele>
        <time>2018-06-23T07:18:47Z</time>
      </trkpt>
      <trkpt lat="48.39442" lon="2.70345">
        <ele>94</ele>
        <time>2018-06-23T07:18:58Z</time>
      </trkpt>
      <trkpt lat="48.39443" lon="2.70376">
        <ele>94</ele>
        <time>2018-06-23T07:19:24Z</time>
      </trkpt>
      <trkpt lat="48.39438" lon="2.70388">
        <ele>94</ele>
        <time>2018-06-23T07:19:34Z</time>
      </trkpt>
      <trkpt lat="48.39434" lon="2.70397">
        <ele>94</ele>
        <time>2018-06-23T07:19:42Z</time>
      </trkpt>
      <trkpt lat="48.39426" lon="2.70411">
        <ele>95</ele>
        <time>2018-06-23T07:19:55Z</time>
      </trkpt>
      <trkpt lat="48.39422" lon="2.70428">
        <ele>96</ele>
        <time>2018-06-23T07:20:06Z</time>
      </trkpt>
      <trkpt lat="48.39417" lon="2.7046">
        <ele>96</ele>
        <time>2018-06-23T07:20:27Z</time>
      </trkpt>
      <trkpt lat="48.39419" lon="2.70471">
        <ele>96</ele>
        <time>2018-06-23T07:20:37Z</time>
      </trkpt>
      <trkpt lat="48.39421" lon="2.70486">
        <ele>97</ele>
        <time>2018-06-23T07:20:50Z</time>
      </trkpt>
      <trkpt lat="48.39418" lon="2.70513">
        <ele>98</ele>
        <time>2018-06-23T07:21:08Z</time>
      </trkpt>
      <trkpt lat="48.39412" lon="2.70549">
        <ele>99</ele>
        <time>2018-06-23T07:21:31Z</time>
      </trkpt>
      <trkpt lat="48.39408" lon="2.70583">
        <ele>99</ele>
        <time>2018-06-23T07:21:53Z</time>
      </trkpt>
      <trkpt lat="48.39407" lon="2.70599">
        <ele>99</ele>
        <time>2018-06-23T07:22:05Z</time>
      </trkpt>
      <trkpt lat="48.39407" lon="2.70623">
        <ele>99</ele>
        <time>2018-06-23T07:22:19Z</time>
      </trkpt>
      <trkpt lat="48.39408" lon="2.70637">
        <ele>99</ele>
        <time>2018-06-23T07:22:37Z</time>
      </trkpt>
      <trkpt lat="48.39411" lon="2.70644">
        <ele>98</ele>
        <time>2018-06-23T07:23:02Z</time>
      </trkpt>
      <trkpt lat="48.39409" lon="2.70649">
        <ele>98</ele>
        <time>2018-06-23T07:23:07Z</time>
      </trkpt>
      <trkpt lat="48.39411" lon="2.70645">
        <ele>98</ele>
        <time>2018-06-23T07:23:30Z</time>
      </trkpt>
      <trkpt lat="48.39411" lon="2.70643">
        <ele>98</ele>
        <time>2018-06-23T07:24:00Z</time>
      </trkpt>
      <trkpt lat="48.39401" lon="2.70656">
        <ele>98</ele>
        <time>2018-06-23T07:24:19Z</time>
      </trkpt>
      <trkpt lat="48.39395" lon="2.70669">
        <ele>99</ele>
        <time>2018-06-23T07:24:28Z</time>
      </trkpt>
      <trkpt lat="48.3939" lon="2.7069">
        <ele>99</ele>
        <time>2018-06-23T07:24:42Z</time>
      </trkpt>
      <trkpt lat="48.39388" lon="2.70722">
        <ele>99</ele>
        <time>2018-06-23T07:25:00Z</time>
      </trkpt>
      <trkpt lat="48.39388" lon="2.70725">
        <ele>99</ele>
        <time>2018-06-23T07:25:01Z</time>
      </trkpt>
      <trkpt lat="48.39388" lon="2.70732">
        <ele>99</ele>
        <time>2018-06-23T07:25:06Z</time>
      </trkpt>
      <trkpt lat="48.39387" lon="2.70748">
        <ele>99</ele>
        <time>2018-06-23T07:25:16Z</time>
      </trkpt>
      <trkpt lat="48.39387" lon="2.70752">
        <ele>100</ele>
        <time>2018-06-23T07:25:18Z</time>
      </trkpt>
      <trkpt lat="48.39387" lon="2.70755">
        <ele>100</ele>
        <time>2018-06-23T07:25:20Z</time>
      </trkpt>
      <trkpt lat="48.39393" lon="2.70773">
        <ele>100</ele>
        <time>2018-06-23T07:25:30Z</time>
      </trkpt>
      <trkpt lat="48.39405" lon="2.70807">
        <ele>101</ele>
        <time>2018-06-23T07:25:51Z</time>
      </trkpt>
      <trkpt lat="48.39406" lon="2.70823">
        <ele>101</ele>
        <time>2018-06-23T07:26:01Z</time>
      </trkpt>
      <trkpt lat="48.39406" lon="2.70824">
        <ele>101</ele>
        <time>2018-06-23T07:26:02Z</time>
      </trkpt>
      <trkpt lat="48.394" lon="2.70835">
        <ele>102</ele>
        <time>2018-06-23T07:26:12Z</time>
      </trkpt>
      <trkpt lat="48.39395" lon="2.70852">
        <ele>103</ele>
        <time>2018-06-23T07:26:24Z</time>
      </trkpt>
      <trkpt lat="48.39396" lon="2.70861">
        <ele>103</ele>
        <time>2018-06-23T07:26:35Z</time>
      </trkpt>
      <trkpt lat="48.39405" lon="2.70866">
        <ele>103</ele>
        <time>2018-06-23T07:26:47Z</time>
      </trkpt>
      <trkpt lat="48.39407" lon="2.70866">
        <ele>103</ele>
        <time>2018-06-23T07:26:48Z</time>
      </trkpt>
      <trkpt lat="48.3941" lon="2.70867">
        <ele>103</ele>
        <time>2018-06-23T07:26:51Z</time>
      </trkpt>
      <trkpt lat="48.39415" lon="2.70869">
        <ele>103</ele>
        <time>2018-06-23T07:26:55Z</time>
      </trkpt>
      <trkpt lat="48.39416" lon="2.70869">
        <ele>103</ele>
        <time>2018-06-23T07:26:56Z</time>
      </trkpt>
      <trkpt lat="48.39422" lon="2.70868">
        <ele>101</ele>
        <time>2018-06-23T07:27:02Z</time>
      </trkpt>
      <trkpt lat="48.39442" lon="2.70861">
        <ele>100</ele>
        <time>2018-06-23T07:27:20Z</time>
      </trkpt>
      <trkpt lat="48.39453" lon="2.70865">
        <ele>100</ele>
        <time>2018-06-23T07:27:37Z</time>
      </trkpt>
      <trkpt lat="48.39455" lon="2.70885">
        <ele>100</ele>
        <time>2018-06-23T07:27:52Z</time>
      </trkpt>
      <trkpt lat="48.39464" lon="2.70899">
        <ele>100</ele>
        <time>2018-06-23T07:28:12Z</time>
      </trkpt>
      <trkpt lat="48.3946" lon="2.70911">
        <ele>100</ele>
        <time>2018-06-23T07:28:28Z</time>
      </trkpt>
      <trkpt lat="48.39459" lon="2.70924">
        <ele>101</ele>
        <time>2018-06-23T07:28:49Z</time>
      </trkpt>
      <trkpt lat="48.39457" lon="2.70929">
        <ele>102</ele>
        <time>2018-06-23T07:28:52Z</time>
      </trkpt>
      <trkpt lat="48.39455" lon="2.70954">
        <ele>102</ele>
        <time>2018-06-23T07:29:10Z</time>
      </trkpt>
      <trkpt lat="48.39458" lon="2.70965">
        <ele>101</ele>
        <time>2018-06-23T07:29:33Z</time>
      </trkpt>
      <trkpt lat="48.39456" lon="2.70974">
        <ele>102</ele>
        <time>2018-06-23T07:29:42Z</time>
      </trkpt>
      <trkpt lat="48.3945" lon="2.70987">
        <ele>102</ele>
        <time>2018-06-23T07:29:51Z</time>
      </trkpt>
      <trkpt lat="48.39444" lon="2.70997">
        <ele>103</ele>
        <time>2018-06-23T07:30:01Z</time>
      </trkpt>
      <trkpt lat="48.39441" lon="2.70998">
        <ele>103</ele>
        <time>2018-06-23T07:30:20Z</time>
      </trkpt>
      <trkpt lat="48.3944" lon="2.70997">
        <ele>103</ele>
        <time>2018-06-23T07:30:47Z</time>
      </trkpt>
      <trkpt lat="48.39441" lon="2.70998">
        <ele>103</ele>
        <time>2018-06-23T07:31:14Z</time>
      </trkpt>
      <trkpt lat="48.39438" lon="2.71002">
        <ele>103</ele>
        <time>2018-06-23T07:31:44Z</time>
      </trkpt>
      <trkpt lat="48.39437" lon="2.71007">
        <ele>103</ele>
        <time>2018-06-23T07:32:09Z</time>
      </trkpt>
      <trkpt lat="48.39437" lon="2.71008">
        <ele>103</ele>
        <time>2018-06-23T07:32:10Z</time>
      </trkpt>
      <trkpt lat="48.39429" lon="2.71025">
        <ele>103</ele>
        <time>2018-06-23T07:32:26Z</time>
      </trkpt>
      <trkpt lat="48.39428" lon="2.71042">
        <ele>102</ele>
        <time>2018-06-23T07:32:41Z</time>
      </trkpt>
      <trkpt lat="48.39432" lon="2.71055">
        <ele>102</ele>
        <time>2018-06-23T07:32:48Z</time>
      </trkpt>
      <trkpt lat="48.3944" lon="2.71075">
        <ele>102</ele>
        <time>2018-06-23T07:33:06Z</time>
      </trkpt>
      <trkpt lat="48.39451" lon="2.71087">
        <ele>101</ele>
        <time>2018-06-23T07:33:23Z</time>
      </trkpt>
      <trkpt lat="48.3946" lon="2.7111">
        <ele>100</ele>
        <time>2018-06-23T07:33:41Z</time>
      </trkpt>
      <trkpt lat="48.39466" lon="2.71119">
        <ele>100</ele>
        <time>2018-06-23T07:34:00Z</time>
      </trkpt>
      <trkpt lat="48.39478" lon="2.71123">
        <ele>100</ele>
        <time>2018-06-23T07:34:19Z</time>
      </trkpt>
      <trkpt lat="48.39476" lon="2.71132">
        <ele>100</ele>
        <time>2018-06-23T07:34:36Z</time>
      </trkpt>
      <trkpt lat="48.39463" lon="2.7114">
        <ele>100</ele>
        <time>2018-06-23T07:34:55Z</time>
      </trkpt>
      <trkpt lat="48.39447" lon="2.71139">
        <ele>101</ele>
        <time>2018-06-23T07:35:12Z</time>
      </trkpt>
      <trkpt lat="48.39438" lon="2.7113">
        <ele>101</ele>
        <time>2018-06-23T07:35:20Z</time>
      </trkpt>
      <trkpt lat="48.39434" lon="2.71126">
        <ele>102</ele>
        <time>2018-06-23T07:35:39Z</time>
      </trkpt>
      <trkpt lat="48.39428" lon="2.71117">
        <ele>102</ele>
        <time>2018-06-23T07:35:56Z</time>
      </trkpt>
      <trkpt lat="48.39415" lon="2.71103">
        <ele>106</ele>
        <time>2018-06-23T07:36:19Z</time>
      </trkpt>
      <trkpt lat="48.39408" lon="2.71098">
        <ele>106</ele>
        <time>2018-06-23T07:36:33Z</time>
      </trkpt>
      <trkpt lat="48.39406" lon="2.71097">
        <ele>106</ele>
        <time>2018-06-23T07:36:35Z</time>
      </trkpt>
      <trkpt lat="48.39402" lon="2.71095">
        <ele>106</ele>
        <time>2018-06-23T07:36:39Z</time>
      </trkpt>
      <trkpt lat="48.39387" lon="2.71076">
        <ele>106</ele>
        <time>2018-06-23T07:36:56Z</time>
      </trkpt>
      <trkpt lat="48.39379" lon="2.71075">
        <ele>106</ele>
        <time>2018-06-23T07:37:09Z</time>
      </trkpt>
      <trkpt lat="48.39374" lon="2.71074">
        <ele>106</ele>
        <time>2018-06-23T07:37:17Z</time>
      </trkpt>
      <trkpt lat="48.39372" lon="2.71069">
        <ele>106</ele>
        <time>2018-06-23T07:37:33Z</time>
      </trkpt>
      <trkpt lat="48.39365" lon="2.71066">
        <ele>106</ele>
        <time>2018-06-23T07:37:59Z</time>
      </trkpt>
      <trkpt lat="48.39366" lon="2.71057">
        <ele>106</ele>
        <time>2018-06-23T07:38:07Z</time>
      </trkpt>
      <trkpt lat="48.3937" lon="2.71037">
        <ele>106</ele>
        <time>2018-06-23T07:38:20Z</time>
      </trkpt>
      <trkpt lat="48.39371" lon="2.71033">
        <ele>106</ele>
        <time>2018-06-23T07:38:22Z</time>
      </trkpt>
      <trkpt lat="48.39375" lon="2.71003">
        <ele>106</ele>
        <time>2018-06-23T07:38:43Z</time>
      </trkpt>
      <trkpt lat="48.3938" lon="2.70977">
        <ele>105</ele>
        <time>2018-06-23T07:39:02Z</time>
      </trkpt>
      <trkpt lat="48.39382" lon="2.70956">
        <ele>105</ele>
        <time>2018-06-23T07:39:16Z</time>
      </trkpt>
      <trkpt lat="48.39384" lon="2.70936">
        <ele>105</ele>
        <time>2018-06-23T07:39:30Z</time>
      </trkpt>
      <trkpt lat="48.39392" lon="2.70917">
        <ele>104</ele>
        <time>2018-06-23T07:39:45Z</time>
      </trkpt>
      <trkpt lat="48.39392" lon="2.70907">
        <ele>104</ele>
        <time>2018-06-23T07:40:03Z</time>
      </trkpt>
      <trkpt lat="48.39394" lon="2.70881">
        <ele>103</ele>
        <time>2018-06-23T07:40:27Z</time>
      </trkpt>
      <trkpt lat="48.39399" lon="2.70877">
        <ele>103</ele>
        <time>2018-06-23T07:40:46Z</time>
      </trkpt>
      <trkpt lat="48.39399" lon="2.70874">
        <ele>103</ele>
        <time>2018-06-23T07:40:52Z</time>
      </trkpt>
      <trkpt lat="48.39395" lon="2.70875">
        <ele>103</ele>
        <time>2018-06-23T07:41:12Z</time>
      </trkpt>
      <trkpt lat="48.39396" lon="2.70879">
        <ele>103</ele>
        <time>2018-06-23T07:41:30Z</time>
      </trkpt>
      <trkpt lat="48.39395" lon="2.70897">
        <ele>104</ele>
        <time>2018-06-23T07:41:45Z</time>
      </trkpt>
      <trkpt lat="48.3939" lon="2.70927">
        <ele>105</ele>
        <time>2018-06-23T07:42:04Z</time>
      </trkpt>
      <trkpt lat="48.39389" lon="2.70955">
        <ele>105</ele>
        <time>2018-06-23T07:42:26Z</time>
      </trkpt>
      <trkpt lat="48.39378" lon="2.70991">
        <ele>105</ele>
        <time>2018-06-23T07:42:48Z</time>
      </trkpt>
      <trkpt lat="48.39374" lon="2.7102">
        <ele>106</ele>
        <time>2018-06-23T07:43:09Z</time>
      </trkpt>
      <trkpt lat="48.39367" lon="2.71048">
        <ele>106</ele>
        <time>2018-06-23T07:43:25Z</time>
      </trkpt>
      <trkpt lat="48.39363" lon="2.71059">
        <ele>106</ele>
        <time>2018-06-23T07:43:33Z</time>
      </trkpt>
      <trkpt lat="48.39346" lon="2.71082">
        <ele>107</ele>
        <time>2018-06-23T07:43:51Z</time>
      </trkpt>
      <trkpt lat="48.39337" lon="2.71095">
        <ele>107</ele>
        <time>2018-06-23T07:44:09Z</time>
      </trkpt>
      <trkpt lat="48.39336" lon="2.71112">
        <ele>107</ele>
        <time>2018-06-23T07:44:30Z</time>
      </trkpt>
      <trkpt lat="48.39333" lon="2.71122">
        <ele>106</ele>
        <time>2018-06-23T07:44:38Z</time>
      </trkpt>
      <trkpt lat="48.39323" lon="2.71154">
        <ele>107</ele>
        <time>2018-06-23T07:45:00Z</time>
      </trkpt>
      <trkpt lat="48.39321" lon="2.71186">
        <ele>106</ele>
        <time>2018-06-23T07:45:22Z</time>
      </trkpt>
      <trkpt lat="48.39322" lon="2.71201">
        <ele>106</ele>
        <time>2018-06-23T07:45:31Z</time>
      </trkpt>
      <trkpt lat="48.39309" lon="2.71238">
        <ele>106</ele>
        <time>2018-06-23T07:45:54Z</time>
      </trkpt>
      <trkpt lat="48.39308" lon="2.71269">
        <ele>106</ele>
        <time>2018-06-23T07:46:14Z</time>
      </trkpt>
      <trkpt lat="48.39308" lon="2.71301">
        <ele>106</ele>
        <time>2018-06-23T07:46:34Z</time>
      </trkpt>
      <trkpt lat="48.3932" lon="2.71335">
        <ele>108</ele>
        <time>2018-06-23T07:46:54Z</time>
      </trkpt>
      <trkpt lat="48.39326" lon="2.71344">
        <ele>108</ele>
        <time>2018-06-23T07:47:02Z</time>
      </trkpt>
      <trkpt lat="48.3933" lon="2.7136">
        <ele>107</ele>
        <time>2018-06-23T07:47:20Z</time>
      </trkpt>
      <trkpt lat="48.39336" lon="2.71357">
        <ele>106</ele>
        <time>2018-06-23T07:47:39Z</time>
      </trkpt>
      <trkpt lat="48.39336" lon="2.71358">
        <ele>106</ele>
        <time>2018-06-23T07:47:58Z</time>
      </trkpt>
      <trkpt lat="48.39337" lon="2.71361">
        <ele>106</ele>
        <time>2018-06-23T07:48:25Z</time>
      </trkpt>
      <trkpt lat="48.39334" lon="2.71373">
        <ele>105</ele>
        <time>2018-06-23T07:48:36Z</time>
      </trkpt>
      <trkpt lat="48.39334" lon="2.71378">
        <ele>105</ele>
        <time>2018-06-23T07:48:41Z</time>
      </trkpt>
      <trkpt lat="48.39341" lon="2.71415">
        <ele>107</ele>
        <time>2018-06-23T07:49:07Z</time>
      </trkpt>
      <trkpt lat="48.39343" lon="2.71438">
        <ele>106</ele>
        <time>2018-06-23T07:49:26Z</time>
      </trkpt>
      <trkpt lat="48.39338" lon="2.71464">
        <ele>106</ele>
        <time>2018-06-23T07:49:44Z</time>
      </trkpt>
      <trkpt lat="48.39328" lon="2.71485">
        <ele>107</ele>
        <time>2018-06-23T07:50:03Z</time>
      </trkpt>
      <trkpt lat="48.39322" lon="2.71517">
        <ele>109</ele>
        <time>2018-06-23T07:50:22Z</time>
      </trkpt>
      <trkpt lat="48.39329" lon="2.71552">
        <ele>110</ele>
        <time>2018-06-23T07:50:42Z</time>
      </trkpt>
      <trkpt lat="48.3933" lon="2.71553">
        <ele>110</ele>
        <time>2018-06-23T07:50:43Z</time>
      </trkpt>
      <trkpt lat="48.39345" lon="2.71576">
        <ele>110</ele>
        <time>2018-06-23T07:51:02Z</time>
      </trkpt>
      <trkpt lat="48.39352" lon="2.71601">
        <ele>109</ele>
        <time>2018-06-23T07:51:22Z</time>
      </trkpt>
      <trkpt lat="48.39351" lon="2.71614">
        <ele>109</ele>
        <time>2018-06-23T07:51:32Z</time>
      </trkpt>
      <trkpt lat="48.39352" lon="2.7163">
        <ele>109</ele>
        <time>2018-06-23T07:51:44Z</time>
      </trkpt>
      <trkpt lat="48.39351" lon="2.71638">
        <ele>109</ele>
        <time>2018-06-23T07:51:50Z</time>
      </trkpt>
      <trkpt lat="48.39351" lon="2.71639">
        <ele>109</ele>
        <time>2018-06-23T07:51:51Z</time>
      </trkpt>
      <trkpt lat="48.3935" lon="2.71647">
        <ele>109</ele>
        <time>2018-06-23T07:51:56Z</time>
      </trkpt>
      <trkpt lat="48.39349" lon="2.71659">
        <ele>110</ele>
        <time>2018-06-23T07:52:15Z</time>
      </trkpt>
      <trkpt lat="48.39348" lon="2.71661">
        <ele>110</ele>
        <time>2018-06-23T07:52:17Z</time>
      </trkpt>
      <trkpt lat="48.39336" lon="2.71686">
        <ele>111</ele>
        <time>2018-06-23T07:52:37Z</time>
      </trkpt>
      <trkpt lat="48.39332" lon="2.71709">
        <ele>115</ele>
        <time>2018-06-23T07:52:53Z</time>
      </trkpt>
      <trkpt lat="48.39342" lon="2.71721">
        <ele>111</ele>
        <time>2018-06-23T07:53:10Z</time>
      </trkpt>
      <trkpt lat="48.39356" lon="2.71718">
        <ele>110</ele>
        <time>2018-06-23T07:53:32Z</time>
      </trkpt>
      <trkpt lat="48.39361" lon="2.71716">
        <ele>110</ele>
        <time>2018-06-23T07:53:51Z</time>
      </trkpt>
      <trkpt lat="48.39365" lon="2.71705">
        <ele>109</ele>
        <time>2018-06-23T07:54:11Z</time>
      </trkpt>
      <trkpt lat="48.39375" lon="2.71719">
        <ele>109</ele>
        <time>2018-06-23T07:54:29Z</time>
      </trkpt>
      <trkpt lat="48.39373" lon="2.71729">
        <ele>109</ele>
        <time>2018-06-23T07:54:49Z</time>
      </trkpt>
      <trkpt lat="48.39368" lon="2.71735">
        <ele>110</ele>
        <time>2018-06-23T07:55:10Z</time>
      </trkpt>
      <trkpt lat="48.39363" lon="2.71743">
        <ele>110</ele>
        <time>2018-06-23T07:55:26Z</time>
      </trkpt>
      <trkpt lat="48.39362" lon="2.71748">
        <ele>111</ele>
        <time>2018-06-23T07:55:52Z</time>
      </trkpt>
      <trkpt lat="48.39356" lon="2.71748">
        <ele>111</ele>
        <time>2018-06-23T07:56:15Z</time>
      </trkpt>
      <trkpt lat="48.3936" lon="2.71763">
        <ele>113</ele>
        <time>2018-06-23T07:56:34Z</time>
      </trkpt>
      <trkpt lat="48.3936" lon="2.71776">
        <ele>113</ele>
        <time>2018-06-23T07:56:52Z</time>
      </trkpt>
      <trkpt lat="48.39352" lon="2.71772">
        <ele>113</ele>
        <time>2018-06-23T07:57:10Z</time>
      </trkpt>
      <trkpt lat="48.39353" lon="2.71784">
        <ele>113</ele>
        <time>2018-06-23T07:57:30Z</time>
      </trkpt>
      <trkpt lat="48.39354" lon="2.71792">
        <ele>114</ele>
        <time>2018-06-23T07:57:46Z</time>
      </trkpt>
      <trkpt lat="48.3936" lon="2.71804">
        <ele>114</ele>
        <time>2018-06-23T07:58:02Z</time>
      </trkpt>
      <trkpt lat="48.39356" lon="2.71815">
        <ele>115</ele>
        <time>2018-06-23T07:58:18Z</time>
      </trkpt>
      <trkpt lat="48.39357" lon="2.71828">
        <ele>115</ele>
        <time>2018-06-23T07:58:38Z</time>
      </trkpt>
      <trkpt lat="48.39364" lon="2.7183">
        <ele>114</ele>
        <time>2018-06-23T07:58:54Z</time>
      </trkpt>
      <trkpt lat="48.39372" lon="2.7184">
        <ele>116</ele>
        <time>2018-06-23T07:59:14Z</time>
      </trkpt>
      <trkpt lat="48.39368" lon="2.71847">
        <ele>116</ele>
        <time>2018-06-23T07:59:27Z</time>
      </trkpt>
      <trkpt lat="48.39375" lon="2.71856">
        <ele>116</ele>
        <time>2018-06-23T07:59:41Z</time>
      </trkpt>
      <trkpt lat="48.39379" lon="2.71862">
        <ele>116</ele>
        <time>2018-06-23T07:59:55Z</time>
      </trkpt>
      <trkpt lat="48.39376" lon="2.71869">
        <ele>116</ele>
        <time>2018-06-23T08:00:13Z</time>
      </trkpt>
      <trkpt lat="48.39374" lon="2.71871">
        <ele>116</ele>
        <time>2018-06-23T08:00:22Z</time>
      </trkpt>
      <trkpt lat="48.39374" lon="2.71879">
        <ele>116</ele>
        <time>2018-06-23T08:00:41Z</time>
      </trkpt>
      <trkpt lat="48.39375" lon="2.71882">
        <ele>116</ele>
        <time>2018-06-23T08:00:52Z</time>
      </trkpt>
      <trkpt lat="48.39373" lon="2.71879">
        <ele>116</ele>
        <time>2018-06-23T08:01:19Z</time>
      </trkpt>
      <trkpt lat="48.39373" lon="2.71884">
        <ele>116</ele>
        <time>2018-06-23T08:01:43Z</time>
      </trkpt>
      <trkpt lat="48.39374" lon="2.71882">
        <ele>116</ele>
        <time>2018-06-23T08:02:08Z</time>
      </trkpt>
      <trkpt lat="48.39385" lon="2.71886">
        <ele>116</ele>
        <time>2018-06-23T08:02:26Z</time>
      </trkpt>
      <trkpt lat="48.39386" lon="2.71895">
        <ele>116</ele>
        <time>2018-06-23T08:02:36Z</time>
      </trkpt>
      <trkpt lat="48.39385" lon="2.71895">
        <ele>116</ele>
        <time>2018-06-23T08:02:47Z</time>
      </trkpt>
      <trkpt lat="48.39391" lon="2.71896">
        <ele>116</ele>
        <time>2018-06-23T08:03:17Z</time>
      </trkpt>
      <trkpt lat="48.39377" lon="2.71897">
        <ele>116</ele>
        <time>2018-06-23T08:03:47Z</time>
      </trkpt>
      <trkpt lat="48.39375" lon="2.719">
        <ele>117</ele>
        <time>2018-06-23T08:03:52Z</time>
      </trkpt>
      <trkpt lat="48.39378" lon="2.71906">
        <ele>116</ele>
        <time>2018-06-23T08:03:56Z</time>
      </trkpt>
      <trkpt lat="48.3938" lon="2.71913">
        <ele>116</ele>
        <time>2018-06-23T08:04:01Z</time>
      </trkpt>
      <trkpt lat="48.39386" lon="2.71921">
        <ele>116</ele>
        <time>2018-06-23T08:04:11Z</time>
      </trkpt>
      <trkpt lat="48.39393" lon="2.7192">
        <ele>115</ele>
        <time>2018-06-23T08:04:23Z</time>
      </trkpt>
      <trkpt lat="48.39397" lon="2.71916">
        <ele>115</ele>
        <time>2018-06-23T08:04:30Z</time>
      </trkpt>
      <trkpt lat="48.394" lon="2.71917">
        <ele>115</ele>
        <time>2018-06-23T08:04:52Z</time>
      </trkpt>
      <trkpt lat="48.394" lon="2.71914">
        <ele>115</ele>
        <time>2018-06-23T08:05:08Z</time>
      </trkpt>
      <trkpt lat="48.39405" lon="2.71904">
        <ele>115</ele>
        <time>2018-06-23T08:05:21Z</time>
      </trkpt>
      <trkpt lat="48.39409" lon="2.71907">
        <ele>114</ele>
        <time>2018-06-23T08:05:37Z</time>
      </trkpt>
      <trkpt lat="48.39413" lon="2.7191">
        <ele>114</ele>
        <time>2018-06-23T08:05:56Z</time>
      </trkpt>
      <trkpt lat="48.39412" lon="2.71923">
        <ele>114</ele>
        <time>2018-06-23T08:06:19Z</time>
      </trkpt>
      <trkpt lat="48.39414" lon="2.71932">
        <ele>114</ele>
        <time>2018-06-23T08:06:38Z</time>
      </trkpt>
      <trkpt lat="48.39414" lon="2.71937">
        <ele>115</ele>
        <time>2018-06-23T08:06:49Z</time>
      </trkpt>
      <trkpt lat="48.39415" lon="2.7194">
        <ele>115</ele>
        <time>2018-06-23T08:07:07Z</time>
      </trkpt>
      <trkpt lat="48.39415" lon="2.71923">
        <ele>114</ele>
        <time>2018-06-23T08:07:24Z</time>
      </trkpt>
      <trkpt lat="48.39414" lon="2.71917">
        <ele>113</ele>
        <time>2018-06-23T08:07:32Z</time>
      </trkpt>
      <trkpt lat="48.39414" lon="2.71906">
        <ele>114</ele>
        <time>2018-06-23T08:07:51Z</time>
      </trkpt>
      <trkpt lat="48.39413" lon="2.7189">
        <ele>115</ele>
        <time>2018-06-23T08:08:13Z</time>
      </trkpt>
      <trkpt lat="48.39413" lon="2.7189">
        <ele>115</ele>
        <time>2018-06-23T08:08:14Z</time>
      </trkpt>
      <trkpt lat="48.39423" lon="2.71898">
        <ele>108</ele>
        <time>2018-06-23T08:08:33Z</time>
      </trkpt>
      <trkpt lat="48.39425" lon="2.71913">
        <ele>110</ele>
        <time>2018-06-23T08:08:48Z</time>
      </trkpt>
      <trkpt lat="48.39426" lon="2.71936">
        <ele>107</ele>
        <time>2018-06-23T08:09:09Z</time>
      </trkpt>
      <trkpt lat="48.39427" lon="2.71945">
        <ele>106</ele>
        <time>2018-06-23T08:09:30Z</time>
      </trkpt>
      <trkpt lat="48.39428" lon="2.71945">
        <ele>106</ele>
        <time>2018-06-23T08:09:56Z</time>
      </trkpt>
      <trkpt lat="48.39425" lon="2.71941">
        <ele>107</ele>
        <time>2018-06-23T08:10:29Z</time>
      </trkpt>
      <trkpt lat="48.39424" lon="2.71941">
        <ele>107</ele>
        <time>2018-06-23T08:10:57Z</time>
      </trkpt>
      <trkpt lat="48.39426" lon="2.71952">
        <ele>106</ele>
        <time>2018-06-23T08:11:13Z</time>
      </trkpt>
      <trkpt lat="48.3942" lon="2.71955">
        <ele>106</ele>
        <time>2018-06-23T08:11:30Z</time>
      </trkpt>
      <trkpt lat="48.39408" lon="2.71964">
        <ele>115</ele>
        <time>2018-06-23T08:11:50Z</time>
      </trkpt>
      <trkpt lat="48.39402" lon="2.71971">
        <ele>115</ele>
        <time>2018-06-23T08:12:03Z</time>
      </trkpt>
      <trkpt lat="48.3941" lon="2.71975">
        <ele>114</ele>
        <time>2018-06-23T08:12:20Z</time>
      </trkpt>
      <trkpt lat="48.39409" lon="2.7198">
        <ele>114</ele>
        <time>2018-06-23T08:12:42Z</time>
      </trkpt>
      <trkpt lat="48.39407" lon="2.71981">
        <ele>114</ele>
        <time>2018-06-23T08:13:11Z</time>
      </trkpt>
      <trkpt lat="48.39407" lon="2.71983">
        <ele>114</ele>
        <time>2018-06-23T08:13:41Z</time>
      </trkpt>
      <trkpt lat="48.39396" lon="2.7199">
        <ele>114</ele>
        <time>2018-06-23T08:14:00Z</time>
      </trkpt>
      <trkpt lat="48.39404" lon="2.72001">
        <ele>112</ele>
        <time>2018-06-23T08:14:17Z</time>
      </trkpt>
      <trkpt lat="48.39417" lon="2.72002">
        <ele>110</ele>
        <time>2018-06-23T08:14:37Z</time>
      </trkpt>
      <trkpt lat="48.39419" lon="2.72018">
        <ele>106</ele>
        <time>2018-06-23T08:14:55Z</time>
      </trkpt>
      <trkpt lat="48.39417" lon="2.7202">
        <ele>112</ele>
        <time>2018-06-23T08:15:01Z</time>
      </trkpt>
      <trkpt lat="48.39407" lon="2.72022">
        <ele>112</ele>
        <time>2018-06-23T08:15:22Z</time>
      </trkpt>
      <trkpt lat="48.39402" lon="2.72034">
        <ele>112</ele>
        <time>2018-06-23T08:15:40Z</time>
      </trkpt>
      <trkpt lat="48.39395" lon="2.72048">
        <ele>112</ele>
        <time>2018-06-23T08:15:58Z</time>
      </trkpt>
      <trkpt lat="48.39387" lon="2.72059">
        <ele>112</ele>
        <time>2018-06-23T08:16:16Z</time>
      </trkpt>
      <trkpt lat="48.39378" lon="2.72071">
        <ele>113</ele>
        <time>2018-06-23T08:16:34Z</time>
      </trkpt>
      <trkpt lat="48.3938" lon="2.72084">
        <ele>111</ele>
        <time>2018-06-23T08:16:52Z</time>
      </trkpt>
      <trkpt lat="48.39382" lon="2.72085">
        <ele>110</ele>
        <time>2018-06-23T08:17:19Z</time>
      </trkpt>
      <trkpt lat="48.39382" lon="2.72087">
        <ele>111</ele>
        <time>2018-06-23T08:17:47Z</time>
      </trkpt>
      <trkpt lat="48.39373" lon="2.7209">
        <ele>112</ele>
        <time>2018-06-23T08:18:07Z</time>
      </trkpt>
      <trkpt lat="48.39366" lon="2.72103">
        <ele>112</ele>
        <time>2018-06-23T08:18:26Z</time>
      </trkpt>
      <trkpt lat="48.39361" lon="2.72118">
        <ele>112</ele>
        <time>2018-06-23T08:18:43Z</time>
      </trkpt>
      <trkpt lat="48.39361" lon="2.72122">
        <ele>112</ele>
        <time>2018-06-23T08:18:48Z</time>
      </trkpt>
      <trkpt lat="48.39359" lon="2.72136">
        <ele>112</ele>
        <time>2018-06-23T08:19:04Z</time>
      </trkpt>
      <trkpt lat="48.39358" lon="2.72143">
        <ele>113</ele>
        <time>2018-06-23T08:19:10Z</time>
      </trkpt>
      <trkpt lat="48.39361" lon="2.7216">
        <ele>113</ele>
        <time>2018-06-23T08:19:24Z</time>
      </trkpt>
      <trkpt lat="48.39356" lon="2.72168">
        <ele>113</ele>
        <time>2018-06-23T08:19:40Z</time>
      </trkpt>
      <trkpt lat="48.39356" lon="2.72183">
        <ele>113</ele>
        <time>2018-06-23T08:20:00Z</time>
      </trkpt>
      <trkpt lat="48.3936" lon="2.72191">
        <ele>112</ele>
        <time>2018-06-23T08:20:18Z</time>
      </trkpt>
      <trkpt lat="48.39361" lon="2.72192">
        <ele>112</ele>
        <time>2018-06-23T08:20:22Z</time>
      </trkpt>
      <trkpt lat="48.39368" lon="2.72196">
        <ele>112</ele>
        <time>2018-06-23T08:20:35Z</time>
      </trkpt>
      <trkpt lat="48.39382" lon="2.72206">
        <ele>111</ele>
        <time>2018-06-23T08:20:52Z</time>
      </trkpt>
      <trkpt lat="48.39387" lon="2.72212">
        <ele>110</ele>
        <time>2018-06-23T08:21:12Z</time>
      </trkpt>
      <trkpt lat="48.39394" lon="2.72217">
        <ele>110</ele>
        <time>2018-06-23T08:21:31Z</time>
      </trkpt>
      <trkpt lat="48.39389" lon="2.72211">
        <ele>110</ele>
        <time>2018-06-23T08:21:51Z</time>
      </trkpt>
      <trkpt lat="48.39381" lon="2.7222">
        <ele>111</ele>
        <time>2018-06-23T08:22:11Z</time>
      </trkpt>
      <trkpt lat="48.39381" lon="2.72233">
        <ele>111</ele>
        <time>2018-06-23T08:22:30Z</time>
      </trkpt>
      <trkpt lat="48.3938" lon="2.72234">
        <ele>111</ele>
        <time>2018-06-23T08:22:49Z</time>
      </trkpt>
      <trkpt lat="48.39384" lon="2.72236">
        <ele>110</ele>
        <time>2018-06-23T08:23:08Z</time>
      </trkpt>
      <trkpt lat="48.39376" lon="2.72245">
        <ele>111</ele>
        <time>2018-06-23T08:23:24Z</time>
      </trkpt>
      <trkpt lat="48.39374" lon="2.72246">
        <ele>111</ele>
        <time>2018-06-23T08:23:31Z</time>
      </trkpt>
      <trkpt lat="48.39369" lon="2.72256">
        <ele>112</ele>
        <time>2018-06-23T08:23:50Z</time>
      </trkpt>
      <trkpt lat="48.39364" lon="2.72256">
        <ele>113</ele>
        <time>2018-06-23T08:24:10Z</time>
      </trkpt>
      <trkpt lat="48.39364" lon="2.72255">
        <ele>113</ele>
        <time>2018-06-23T08:24:29Z</time>
      </trkpt>
      <trkpt lat="48.39362" lon="2.72256">
        <ele>113</ele>
        <time>2018-06-23T08:24:50Z</time>
      </trkpt>
      <trkpt lat="48.39355" lon="2.72253">
        <ele>114</ele>
        <time>2018-06-23T08:25:05Z</time>
      </trkpt>
      <trkpt lat="48.39354" lon="2.72256">
        <ele>114</ele>
        <time>2018-06-23T08:25:14Z</time>
      </trkpt>
      <trkpt lat="48.3935" lon="2.7227">
        <ele>114</ele>
        <time>2018-06-23T08:25:31Z</time>
      </trkpt>
      <trkpt lat="48.39351" lon="2.72277">
        <ele>114</ele>
        <time>2018-06-23T08:25:50Z</time>
      </trkpt>
      <trkpt lat="48.39349" lon="2.72278">
        <ele>114</ele>
        <time>2018-06-23T08:26:08Z</time>
      </trkpt>
      <trkpt lat="48.3935" lon="2.72282">
        <ele>114</ele>
        <time>2018-06-23T08:26:25Z</time>
      </trkpt>
      <trkpt lat="48.39351" lon="2.72295">
        <ele>114</ele>
        <time>2018-06-23T08:26:42Z</time>
      </trkpt>
      <trkpt lat="48.39354" lon="2.72309">
        <ele>114</ele>
        <time>2018-06-23T08:26:57Z</time>
      </trkpt>
      <trkpt lat="48.39351" lon="2.72328">
        <ele>116</ele>
        <time>2018-06-23T08:27:14Z</time>
      </trkpt>
      <trkpt lat="48.39348" lon="2.72329">
        <ele>117</ele>
        <time>2018-06-23T08:27:33Z</time>
      </trkpt>
      <trkpt lat="48.39351" lon="2.72329">
        <ele>116</ele>
        <time>2018-06-23T08:28:08Z</time>
      </trkpt>
      <trkpt lat="48.39349" lon="2.72332">
        <ele>116</ele>
        <time>2018-06-23T08:28:48Z</time>
      </trkpt>
      <trkpt lat="48.39347" lon="2.72339">
        <ele>116</ele>
        <time>2018-06-23T08:29:15Z</time>
      </trkpt>
      <trkpt lat="48.39334" lon="2.72338">
        <ele>119</ele>
        <time>2018-06-23T08:29:36Z</time>
      </trkpt>
      <trkpt lat="48.3933" lon="2.72338">
        <ele>120</ele>
        <time>2018-06-23T08:29:40Z</time>
      </trkpt>
      <trkpt lat="48.39329" lon="2.72345">
        <ele>119</ele>
        <time>2018-06-23T08:29:53Z</time>
      </trkpt>
      <trkpt lat="48.39325" lon="2.72358">
        <ele>118</ele>
        <time>2018-06-23T08:30:06Z</time>
      </trkpt>
      <trkpt lat="48.39321" lon="2.72367">
        <ele>117</ele>
        <time>2018-06-23T08:30:24Z</time>
      </trkpt>
      <trkpt lat="48.39315" lon="2.72386">
        <ele>116</ele>
        <time>2018-06-23T08:30:46Z</time>
      </trkpt>
      <trkpt lat="48.39312" lon="2.72403">
        <ele>116</ele>
        <time>2018-06-23T08:31:05Z</time>
      </trkpt>
      <trkpt lat="48.39312" lon="2.72418">
        <ele>115</ele>
        <time>2018-06-23T08:31:23Z</time>
      </trkpt>
      <trkpt lat="48.39306" lon="2.72448">
        <ele>115</ele>
        <time>2018-06-23T08:31:43Z</time>
      </trkpt>
      <trkpt lat="48.39303" lon="2.72465">
        <ele>114</ele>
        <time>2018-06-23T08:31:58Z</time>
      </trkpt>
      <trkpt lat="48.39307" lon="2.72471">
        <ele>114</ele>
        <time>2018-06-23T08:32:05Z</time>
      </trkpt>
      <trkpt lat="48.39309" lon="2.72474">
        <ele>114</ele>
        <time>2018-06-23T08:32:08Z</time>
      </trkpt>
      <trkpt lat="48.3931" lon="2.72489">
        <ele>114</ele>
        <time>2018-06-23T08:32:25Z</time>
      </trkpt>
      <trkpt lat="48.39309" lon="2.72497">
        <ele>114</ele>
        <time>2018-06-23T08:32:41Z</time>
      </trkpt>
      <trkpt lat="48.39304" lon="2.72503">
        <ele>112</ele>
        <time>2018-06-23T08:32:57Z</time>
      </trkpt>
      <trkpt lat="48.39299" lon="2.72511">
        <ele>112</ele>
        <time>2018-06-23T08:33:11Z</time>
      </trkpt>
      <trkpt lat="48.39295" lon="2.72511">
        <ele>112</ele>
        <time>2018-06-23T08:33:26Z</time>
      </trkpt>
      <trkpt lat="48.39299" lon="2.72502">
        <ele>112</ele>
        <time>2018-06-23T08:33:41Z</time>
      </trkpt>
      <trkpt lat="48.39302" lon="2.72494">
        <ele>114</ele>
        <time>2018-06-23T08:33:59Z</time>
      </trkpt>
      <trkpt lat="48.39303" lon="2.725">
        <ele>112</ele>
        <time>2018-06-23T08:34:24Z</time>
      </trkpt>
      <trkpt lat="48.39296" lon="2.72502">
        <ele>112</ele>
        <time>2018-06-23T08:34:39Z</time>
      </trkpt>
      <trkpt lat="48.39295" lon="2.7249">
        <ele>114</ele>
        <time>2018-06-23T08:34:55Z</time>
      </trkpt>
      <trkpt lat="48.39293" lon="2.72482">
        <ele>114</ele>
        <time>2018-06-23T08:35:08Z</time>
      </trkpt>
      <trkpt lat="48.39291" lon="2.72478">
        <ele>114</ele>
        <time>2018-06-23T08:35:27Z</time>
      </trkpt>
      <trkpt lat="48.39294" lon="2.7247">
        <ele>114</ele>
        <time>2018-06-23T08:35:53Z</time>
      </trkpt>
      <trkpt lat="48.39294" lon="2.72469">
        <ele>114</ele>
        <time>2018-06-23T08:35:54Z</time>
      </trkpt>
      <trkpt lat="48.39298" lon="2.72452">
        <ele>114</ele>
        <time>2018-06-23T08:36:09Z</time>
      </trkpt>
      <trkpt lat="48.39297" lon="2.72428">
        <ele>115</ele>
        <time>2018-06-23T08:36:27Z</time>
      </trkpt>
      <trkpt lat="48.39298" lon="2.72409">
        <ele>116</ele>
        <time>2018-06-23T08:36:49Z</time>
      </trkpt>
      <trkpt lat="48.39302" lon="2.72387">
        <ele>116</ele>
        <time>2018-06-23T08:37:10Z</time>
      </trkpt>
      <trkpt lat="48.39303" lon="2.72387">
        <ele>116</ele>
        <time>2018-06-23T08:37:12Z</time>
      </trkpt>
      <trkpt lat="48.3931" lon="2.72374">
        <ele>116</ele>
        <time>2018-06-23T08:37:31Z</time>
      </trkpt>
      <trkpt lat="48.39313" lon="2.72367">
        <ele>117</ele>
        <time>2018-06-23T08:37:48Z</time>
      </trkpt>
      <trkpt lat="48.39303" lon="2.72366">
        <ele>116</ele>
        <time>2018-06-23T08:38:04Z</time>
      </trkpt>
      <trkpt lat="48.39303" lon="2.72351">
        <ele>117</ele>
        <time>2018-06-23T08:38:19Z</time>
      </trkpt>
      <trkpt lat="48.39311" lon="2.72329">
        <ele>117</ele>
        <time>2018-06-23T08:38:41Z</time>
      </trkpt>
      <trkpt lat="48.39317" lon="2.72317">
        <ele>117</ele>
        <time>2018-06-23T08:38:58Z</time>
      </trkpt>
      <trkpt lat="48.39321" lon="2.72303">
        <ele>117</ele>
        <time>2018-06-23T08:39:11Z</time>
      </trkpt>
      <trkpt lat="48.39321" lon="2.72285">
        <ele>116</ele>
        <time>2018-06-23T08:39:29Z</time>
      </trkpt>
      <trkpt lat="48.39315" lon="2.72284">
        <ele>116</ele>
        <time>2018-06-23T08:39:39Z</time>
      </trkpt>
      <trkpt lat="48.39312" lon="2.72284">
        <ele>116</ele>
        <time>2018-06-23T08:39:41Z</time>
      </trkpt>
      <trkpt lat="48.39307" lon="2.72283">
        <ele>116</ele>
        <time>2018-06-23T08:40:07Z</time>
      </trkpt>
      <trkpt lat="48.39309" lon="2.72285">
        <ele>116</ele>
        <time>2018-06-23T08:40:34Z</time>
      </trkpt>
      <trkpt lat="48.39308" lon="2.72284">
        <ele>116</ele>
        <time>2018-06-23T08:40:37Z</time>
      </trkpt>
      <trkpt lat="48.39306" lon="2.72284">
        <ele>116</ele>
        <time>2018-06-23T08:40:44Z</time>
      </trkpt>
      <trkpt lat="48.39303" lon="2.72288">
        <ele>116</ele>
        <time>2018-06-23T08:41:17Z</time>
      </trkpt>
      <trkpt lat="48.39306" lon="2.72289">
        <ele>116</ele>
        <time>2018-06-23T08:41:47Z</time>
      </trkpt>
      <trkpt lat="48.39303" lon="2.72287">
        <ele>116</ele>
        <time>2018-06-23T08:42:22Z</time>
      </trkpt>
      <trkpt lat="48.39308" lon="2.72282">
        <ele>116</ele>
        <time>2018-06-23T08:42:39Z</time>
      </trkpt>
      <trkpt lat="48.39308" lon="2.72278">
        <ele>116</ele>
        <time>2018-06-23T08:42:42Z</time>
      </trkpt>
      <trkpt lat="48.39299" lon="2.7226">
        <ele>115</ele>
        <time>2018-06-23T08:43:01Z</time>
      </trkpt>
      <trkpt lat="48.39295" lon="2.72254">
        <ele>115</ele>
        <time>2018-06-23T08:43:15Z</time>
      </trkpt>
      <trkpt lat="48.39294" lon="2.72253">
        <ele>115</ele>
        <time>2018-06-23T08:43:16Z</time>
      </trkpt>
      <trkpt lat="48.3929" lon="2.7224">
        <ele>115</ele>
        <time>2018-06-23T08:43:32Z</time>
      </trkpt>
      <trkpt lat="48.39288" lon="2.72227">
        <ele>115</ele>
        <time>2018-06-23T08:43:44Z</time>
      </trkpt>
      <trkpt lat="48.39287" lon="2.72215">
        <ele>115</ele>
        <time>2018-06-23T08:43:54Z</time>
      </trkpt>
      <trkpt lat="48.39292" lon="2.72201">
        <ele>115</ele>
        <time>2018-06-23T08:44:07Z</time>
      </trkpt>
      <trkpt lat="48.39294" lon="2.72195">
        <ele>115</ele>
        <time>2018-06-23T08:44:13Z</time>
      </trkpt>
      <trkpt lat="48.393" lon="2.7218">
        <ele>116</ele>
        <time>2018-06-23T08:44:26Z</time>
      </trkpt>
      <trkpt lat="48.39297" lon="2.72158">
        <ele>117</ele>
        <time>2018-06-23T08:44:40Z</time>
      </trkpt>
      <trkpt lat="48.39302" lon="2.72133">
        <ele>117</ele>
        <time>2018-06-23T08:44:55Z</time>
      </trkpt>
      <trkpt lat="48.39307" lon="2.72117">
        <ele>117</ele>
        <time>2018-06-23T08:45:07Z</time>
      </trkpt>
      <trkpt lat="48.39309" lon="2.72101">
        <ele>118</ele>
        <time>2018-06-23T08:45:18Z</time>
      </trkpt>
      <trkpt lat="48.39308" lon="2.72082">
        <ele>118</ele>
        <time>2018-06-23T08:45:36Z</time>
      </trkpt>
      <trkpt lat="48.39309" lon="2.72062">
        <ele>118</ele>
        <time>2018-06-23T08:45:54Z</time>
      </trkpt>
      <trkpt lat="48.3931" lon="2.72059">
        <ele>118</ele>
        <time>2018-06-23T08:45:56Z</time>
      </trkpt>
      <trkpt lat="48.39306" lon="2.72037">
        <ele>118</ele>
        <time>2018-06-23T08:46:13Z</time>
      </trkpt>
      <trkpt lat="48.39315" lon="2.72024">
        <ele>118</ele>
        <time>2018-06-23T08:46:31Z</time>
      </trkpt>
      <trkpt lat="48.39328" lon="2.7201">
        <ele>119</ele>
        <time>2018-06-23T08:46:51Z</time>
      </trkpt>
      <trkpt lat="48.39332" lon="2.71988">
        <ele>119</ele>
        <time>2018-06-23T08:47:09Z</time>
      </trkpt>
      <trkpt lat="48.3933" lon="2.71971">
        <ele>119</ele>
        <time>2018-06-23T08:47:23Z</time>
      </trkpt>
      <trkpt lat="48.39315" lon="2.71951">
        <ele>118</ele>
        <time>2018-06-23T08:47:45Z</time>
      </trkpt>
      <trkpt lat="48.39306" lon="2.71927">
        <ele>118</ele>
        <time>2018-06-23T08:48:04Z</time>
      </trkpt>
      <trkpt lat="48.39303" lon="2.71915">
        <ele>118</ele>
        <time>2018-06-23T08:48:12Z</time>
      </trkpt>
      <trkpt lat="48.39299" lon="2.71904">
        <ele>118</ele>
        <time>2018-06-23T08:48:19Z</time>
      </trkpt>
      <trkpt lat="48.39292" lon="2.71883">
        <ele>117</ele>
        <time>2018-06-23T08:48:37Z</time>
      </trkpt>
      <trkpt lat="48.39294" lon="2.71883">
        <ele>117</ele>
        <time>2018-06-23T08:49:03Z</time>
      </trkpt>
      <trkpt lat="48.39294" lon="2.71881">
        <ele>117</ele>
        <time>2018-06-23T08:49:32Z</time>
      </trkpt>
      <trkpt lat="48.39293" lon="2.71884">
        <ele>117</ele>
        <time>2018-06-23T08:50:04Z</time>
      </trkpt>
      <trkpt lat="48.39288" lon="2.71876">
        <ele>117</ele>
        <time>2018-06-23T08:50:38Z</time>
      </trkpt>
      <trkpt lat="48.39287" lon="2.7188">
        <ele>117</ele>
        <time>2018-06-23T08:51:04Z</time>
      </trkpt>
      <trkpt lat="48.39289" lon="2.71879">
        <ele>117</ele>
        <time>2018-06-23T08:51:31Z</time>
      </trkpt>
      <trkpt lat="48.39292" lon="2.71878">
        <ele>117</ele>
        <time>2018-06-23T08:52:04Z</time>
      </trkpt>
      <trkpt lat="48.3929" lon="2.71878">
        <ele>117</ele>
        <time>2018-06-23T08:52:31Z</time>
      </trkpt>
      <trkpt lat="48.39289" lon="2.71873">
        <ele>117</ele>
        <time>2018-06-23T08:53:04Z</time>
      </trkpt>
      <trkpt lat="48.39292" lon="2.71869">
        <ele>117</ele>
        <time>2018-06-23T08:53:34Z</time>
      </trkpt>
      <trkpt lat="48.39296" lon="2.71873">
        <ele>117</ele>
        <time>2018-06-23T08:54:01Z</time>
      </trkpt>
      <trkpt lat="48.39296" lon="2.71871">
        <ele>117</ele>
        <time>2018-06-23T08:54:28Z</time>
      </trkpt>
      <trkpt lat="48.39292" lon="2.71871">
        <ele>117</ele>
        <time>2018-06-23T08:55:02Z</time>
      </trkpt>
      <trkpt lat="48.39289" lon="2.71875">
        <ele>117</ele>
        <time>2018-06-23T08:55:21Z</time>
      </trkpt>
      <trkpt lat="48.39285" lon="2.71869">
        <ele>117</ele>
        <time>2018-06-23T08:55:44Z</time>
      </trkpt>
      <trkpt lat="48.39284" lon="2.71864">
        <ele>117</ele>
        <time>2018-06-23T08:55:50Z</time>
      </trkpt>
      <trkpt lat="48.39285" lon="2.71845">
        <ele>117</ele>
        <time>2018-06-23T08:56:06Z</time>
      </trkpt>
      <trkpt lat="48.39287" lon="2.71827">
        <ele>117</ele>
        <time>2018-06-23T08:56:21Z</time>
      </trkpt>
      <trkpt lat="48.39291" lon="2.71807">
        <ele>117</ele>
        <time>2018-06-23T08:56:38Z</time>
      </trkpt>
      <trkpt lat="48.39296" lon="2.71792">
        <ele>117</ele>
        <time>2018-06-23T08:56:52Z</time>
      </trkpt>
      <trkpt lat="48.39298" lon="2.7179">
        <ele>116</ele>
        <time>2018-06-23T08:57:14Z</time>
      </trkpt>
      <trkpt lat="48.39293" lon="2.71773">
        <ele>116</ele>
        <time>2018-06-23T08:57:32Z</time>
      </trkpt>
      <trkpt lat="48.39281" lon="2.71753">
        <ele>117</ele>
        <time>2018-06-23T08:57:51Z</time>
      </trkpt>
      <trkpt lat="48.39273" lon="2.71732">
        <ele>116</ele>
        <time>2018-06-23T08:58:09Z</time>
      </trkpt>
      <trkpt lat="48.39272" lon="2.71714">
        <ele>116</ele>
        <time>2018-06-23T08:58:29Z</time>
      </trkpt>
      <trkpt lat="48.39268" lon="2.71696">
        <ele>116</ele>
        <time>2018-06-23T08:58:47Z</time>
      </trkpt>
      <trkpt lat="48.39273" lon="2.71691">
        <ele>116</ele>
        <time>2018-06-23T08:59:07Z</time>
      </trkpt>
      <trkpt lat="48.39273" lon="2.71689">
        <ele>116</ele>
        <time>2018-06-23T08:59:31Z</time>
      </trkpt>
      <trkpt lat="48.39272" lon="2.71686">
        <ele>116</ele>
        <time>2018-06-23T08:59:48Z</time>
      </trkpt>
      <trkpt lat="48.39272" lon="2.71679">
        <ele>116</ele>
        <time>2018-06-23T09:00:03Z</time>
      </trkpt>
      <trkpt lat="48.39274" lon="2.71677">
        <ele>116</ele>
        <time>2018-06-23T09:00:24Z</time>
      </trkpt>
      <trkpt lat="48.39274" lon="2.71675">
        <ele>116</ele>
        <time>2018-06-23T09:00:45Z</time>
      </trkpt>
      <trkpt lat="48.39273" lon="2.71674">
        <ele>116</ele>
        <time>2018-06-23T09:01:05Z</time>
      </trkpt>
      <trkpt lat="48.39272" lon="2.71679">
        <ele>116</ele>
        <time>2018-06-23T09:01:30Z</time>
      </trkpt>
      <trkpt lat="48.39272" lon="2.71686">
        <ele>116</ele>
        <time>2018-06-23T09:01:45Z</time>
      </trkpt>
      <trkpt lat="48.39275" lon="2.7168">
        <ele>116</ele>
        <time>2018-06-23T09:02:01Z</time>
      </trkpt>
      <trkpt lat="48.39281" lon="2.71672">
        <ele>116</ele>
        <time>2018-06-23T09:02:20Z</time>
      </trkpt>
      <trkpt lat="48.39283" lon="2.71669">
        <ele>116</ele>
        <time>2018-06-23T09:02:53Z</time>
      </trkpt>
      <trkpt lat="48.39282" lon="2.71668">
        <ele>116</ele>
        <time>2018-06-23T09:02:58Z</time>
      </trkpt>
      <trkpt lat="48.39281" lon="2.71665">
        <ele>114</ele>
        <time>2018-06-23T09:03:15Z</time>
      </trkpt>
      <trkpt lat="48.39285" lon="2.71663">
        <ele>114</ele>
        <time>2018-06-23T09:03:41Z</time>
      </trkpt>
      <trkpt lat="48.39286" lon="2.71652">
        <ele>114</ele>
        <time>2018-06-23T09:03:59Z</time>
      </trkpt>
      <trkpt lat="48.39286" lon="2.7164">
        <ele>114</ele>
        <time>2018-06-23T09:04:14Z</time>
      </trkpt>
      <trkpt lat="48.39295" lon="2.71639">
        <ele>114</ele>
        <time>2018-06-23T09:04:30Z</time>
      </trkpt>
      <trkpt lat="48.39301" lon="2.71628">
        <ele>113</ele>
        <time>2018-06-23T09:04:49Z</time>
      </trkpt>
      <trkpt lat="48.39291" lon="2.71611">
        <ele>113</ele>
        <time>2018-06-23T09:05:09Z</time>
      </trkpt>
      <trkpt lat="48.39276" lon="2.71602">
        <ele>113</ele>
        <time>2018-06-23T09:05:27Z</time>
      </trkpt>
      <trkpt lat="48.39275" lon="2.71585">
        <ele>113</ele>
        <time>2018-06-23T09:05:47Z</time>
      </trkpt>
      <trkpt lat="48.39275" lon="2.7158">
        <ele>111</ele>
        <time>2018-06-23T09:05:52Z</time>
      </trkpt>
      <trkpt lat="48.39266" lon="2.71573">
        <ele>111</ele>
        <time>2018-06-23T09:06:10Z</time>
      </trkpt>
      <trkpt lat="48.39255" lon="2.71559">
        <ele>110</ele>
        <time>2018-06-23T09:06:27Z</time>
      </trkpt>
      <trkpt lat="48.39262" lon="2.71538">
        <ele>110</ele>
        <time>2018-06-23T09:06:46Z</time>
      </trkpt>
      <trkpt lat="48.39271" lon="2.71534">
        <ele>109</ele>
        <time>2018-06-23T09:07:07Z</time>
      </trkpt>
      <trkpt lat="48.39277" lon="2.71516">
        <ele>109</ele>
        <time>2018-06-23T09:07:23Z</time>
      </trkpt>
      <trkpt lat="48.39283" lon="2.71494">
        <ele>107</ele>
        <time>2018-06-23T09:07:43Z</time>
      </trkpt>
      <trkpt lat="48.39287" lon="2.71478">
        <ele>107</ele>
        <time>2018-06-23T09:08:01Z</time>
      </trkpt>
      <trkpt lat="48.39279" lon="2.71468">
        <ele>107</ele>
        <time>2018-06-23T09:08:19Z</time>
      </trkpt>
      <trkpt lat="48.39276" lon="2.71447">
        <ele>106</ele>
        <time>2018-06-23T09:08:39Z</time>
      </trkpt>
      <trkpt lat="48.39284" lon="2.71427">
        <ele>106</ele>
        <time>2018-06-23T09:08:58Z</time>
      </trkpt>
      <trkpt lat="48.39291" lon="2.71423">
        <ele>106</ele>
        <time>2018-06-23T09:09:18Z</time>
      </trkpt>
      <trkpt lat="48.39297" lon="2.71422">
        <ele>107</ele>
        <time>2018-06-23T09:09:36Z</time>
      </trkpt>
      <trkpt lat="48.3931" lon="2.71437">
        <ele>107</ele>
        <time>2018-06-23T09:09:57Z</time>
      </trkpt>
      <trkpt lat="48.39325" lon="2.71441">
        <ele>107</ele>
        <time>2018-06-23T09:10:15Z</time>
      </trkpt>
      <trkpt lat="48.39337" lon="2.71423">
        <ele>107</ele>
        <time>2018-06-23T09:10:36Z</time>
      </trkpt>
      <trkpt lat="48.39333" lon="2.71391">
        <ele>107</ele>
        <time>2018-06-23T09:10:57Z</time>
      </trkpt>
      <trkpt lat="48.3933" lon="2.7136">
        <ele>107</ele>
        <time>2018-06-23T09:11:16Z</time>
      </trkpt>
      <trkpt lat="48.39325" lon="2.71347">
        <ele>108</ele>
        <time>2018-06-23T09:11:37Z</time>
      </trkpt>
      <trkpt lat="48.39314" lon="2.7133">
        <ele>107</ele>
        <time>2018-06-23T09:11:58Z</time>
      </trkpt>
      <trkpt lat="48.39302" lon="2.71327">
        <ele>106</ele>
        <time>2018-06-23T09:12:17Z</time>
      </trkpt>
      <trkpt lat="48.393" lon="2.71327">
        <ele>106</ele>
        <time>2018-06-23T09:12:19Z</time>
      </trkpt>
      <trkpt lat="48.39285" lon="2.71322">
        <ele>106</ele>
        <time>2018-06-23T09:12:33Z</time>
      </trkpt>
      <trkpt lat="48.39274" lon="2.71323">
        <ele>105</ele>
        <time>2018-06-23T09:12:48Z</time>
      </trkpt>
      <trkpt lat="48.39258" lon="2.71328">
        <ele>104</ele>
        <time>2018-06-23T09:13:07Z</time>
      </trkpt>
      <trkpt lat="48.39242" lon="2.71336">
        <ele>103</ele>
        <time>2018-06-23T09:13:24Z</time>
      </trkpt>
      <trkpt lat="48.39223" lon="2.71344">
        <ele>101</ele>
        <time>2018-06-23T09:13:41Z</time>
      </trkpt>
      <trkpt lat="48.39207" lon="2.71352">
        <ele>100</ele>
        <time>2018-06-23T09:13:59Z</time>
      </trkpt>
      <trkpt lat="48.39192" lon="2.71358">
        <ele>99</ele>
        <time>2018-06-23T09:14:11Z</time>
      </trkpt>
      <trkpt lat="48.39185" lon="2.71358">
        <ele>99</ele>
        <time>2018-06-23T09:14:16Z</time>
      </trkpt>
      <trkpt lat="48.39179" lon="2.71353">
        <ele>99</ele>
        <time>2018-06-23T09:14:24Z</time>
      </trkpt>
      <trkpt lat="48.39176" lon="2.71339">
        <ele>98</ele>
        <time>2018-06-23T09:14:33Z</time>
      </trkpt>
      <trkpt lat="48.39176" lon="2.71315">
        <ele>99</ele>
        <time>2018-06-23T09:14:53Z</time>
      </trkpt>
      <trkpt lat="48.39175" lon="2.71289">
        <ele>99</ele>
        <time>2018-06-23T09:15:10Z</time>
      </trkpt>
      <trkpt lat="48.39177" lon="2.7126">
        <ele>98</ele>
        <time>2018-06-23T09:15:28Z</time>
      </trkpt>
      <trkpt lat="48.39176" lon="2.71253">
        <ele>98</ele>
        <time>2018-06-23T09:15:32Z</time>
      </trkpt>
      <trkpt lat="48.39176" lon="2.71242">
        <ele>98</ele>
        <time>2018-06-23T09:15:38Z</time>
      </trkpt>
      <trkpt lat="48.39175" lon="2.7122">
        <ele>98</ele>
        <time>2018-06-23T09:15:50Z</time>
      </trkpt>
      <trkpt lat="48.39174" lon="2.71216">
        <ele>98</ele>
        <time>2018-06-23T09:15:52Z</time>
      </trkpt>
      <trkpt lat="48.39175" lon="2.71213">
        <ele>98</ele>
        <time>2018-06-23T09:15:54Z</time>
      </trkpt>
      <trkpt lat="48.39174" lon="2.71208">
        <ele>98</ele>
        <time>2018-06-23T09:15:57Z</time>
      </trkpt>
      <trkpt lat="48.39174" lon="2.71188">
        <ele>97</ele>
        <time>2018-06-23T09:16:10Z</time>
      </trkpt>
      <trkpt lat="48.39175" lon="2.71174">
        <ele>96</ele>
        <time>2018-06-23T09:16:19Z</time>
      </trkpt>
      <trkpt lat="48.39175" lon="2.71143">
        <ele>97</ele>
        <time>2018-06-23T09:16:37Z</time>
      </trkpt>
      <trkpt lat="48.39174" lon="2.71139">
        <ele>97</ele>
        <time>2018-06-23T09:16:39Z</time>
      </trkpt>
      <trkpt lat="48.39174" lon="2.71115">
        <ele>97</ele>
        <time>2018-06-23T09:16:52Z</time>
      </trkpt>
      <trkpt lat="48.39175" lon="2.7111">
        <ele>97</ele>
        <time>2018-06-23T09:16:55Z</time>
      </trkpt>
      <trkpt lat="48.39173" lon="2.71088">
        <ele>96</ele>
        <time>2018-06-23T09:17:10Z</time>
      </trkpt>
      <trkpt lat="48.39175" lon="2.71062">
        <ele>96</ele>
        <time>2018-06-23T09:17:27Z</time>
      </trkpt>
      <trkpt lat="48.39174" lon="2.71034">
        <ele>96</ele>
        <time>2018-06-23T09:17:45Z</time>
      </trkpt>
      <trkpt lat="48.39174" lon="2.71021">
        <ele>96</ele>
        <time>2018-06-23T09:17:53Z</time>
      </trkpt>
      <trkpt lat="48.39176" lon="2.70996">
        <ele>95</ele>
        <time>2018-06-23T09:18:07Z</time>
      </trkpt>
      <trkpt lat="48.39176" lon="2.70988">
        <ele>95</ele>
        <time>2018-06-23T09:18:10Z</time>
      </trkpt>
      <trkpt lat="48.39175" lon="2.70982">
        <ele>95</ele>
        <time>2018-06-23T09:18:13Z</time>
      </trkpt>
      <trkpt lat="48.39174" lon="2.70955">
        <ele>95</ele>
        <time>2018-06-23T09:18:30Z</time>
      </trkpt>
      <trkpt lat="48.39174" lon="2.70931">
        <ele>95</ele>
        <time>2018-06-23T09:18:46Z</time>
      </trkpt>
      <trkpt lat="48.39176" lon="2.70897">
        <ele>95</ele>
        <time>2018-06-23T09:19:08Z</time>
      </trkpt>
      <trkpt lat="48.39175" lon="2.70861">
        <ele>96</ele>
        <time>2018-06-23T09:19:24Z</time>
      </trkpt>
      <trkpt lat="48.39178" lon="2.70849">
        <ele>96</ele>
        <time>2018-06-23T09:19:32Z</time>
      </trkpt>
      <trkpt lat="48.3918" lon="2.70836">
        <ele>96</ele>
        <time>2018-06-23T09:19:40Z</time>
      </trkpt>
      <trkpt lat="48.3918" lon="2.7082">
        <ele>96</ele>
        <time>2018-06-23T09:19:53Z</time>
      </trkpt>
      <trkpt lat="48.3918" lon="2.70817">
        <ele>96</ele>
        <time>2018-06-23T09:20:11Z</time>
      </trkpt>
      <trkpt lat="48.39181" lon="2.70812">
        <ele>96</ele>
        <time>2018-06-23T09:20:18Z</time>
      </trkpt>
      <trkpt lat="48.39186" lon="2.70798">
        <ele>97</ele>
        <time>2018-06-23T09:20:26Z</time>
      </trkpt>
      <trkpt lat="48.3919" lon="2.70788">
        <ele>97</ele>
        <time>2018-06-23T09:20:33Z</time>
      </trkpt>
      <trkpt lat="48.39198" lon="2.70775">
        <ele>97</ele>
        <time>2018-06-23T09:20:41Z</time>
      </trkpt>
      <trkpt lat="48.39201" lon="2.7077">
        <ele>97</ele>
        <time>2018-06-23T09:20:45Z</time>
      </trkpt>
      <trkpt lat="48.39206" lon="2.7076">
        <ele>97</ele>
        <time>2018-06-23T09:20:52Z</time>
      </trkpt>
      <trkpt lat="48.39207" lon="2.7075">
        <ele>97</ele>
        <time>2018-06-23T09:21:00Z</time>
      </trkpt>
      <trkpt lat="48.39213" lon="2.70732">
        <ele>98</ele>
        <time>2018-06-23T09:21:12Z</time>
      </trkpt>
      <trkpt lat="48.39222" lon="2.70718">
        <ele>98</ele>
        <time>2018-06-23T09:21:22Z</time>
      </trkpt>
      <trkpt lat="48.39226" lon="2.70701">
        <ele>98</ele>
        <time>2018-06-23T09:21:32Z</time>
      </trkpt>
      <trkpt lat="48.39226" lon="2.70698">
        <ele>98</ele>
        <time>2018-06-23T09:21:34Z</time>
      </trkpt>
      <trkpt lat="48.39234" lon="2.70675">
        <ele>98</ele>
        <time>2018-06-23T09:21:49Z</time>
      </trkpt>
      <trkpt lat="48.39242" lon="2.70654">
        <ele>98</ele>
        <time>2018-06-23T09:22:01Z</time>
      </trkpt>
      <trkpt lat="48.39249" lon="2.70635">
        <ele>98</ele>
        <time>2018-06-23T09:22:14Z</time>
      </trkpt>
      <trkpt lat="48.39256" lon="2.70617">
        <ele>98</ele>
        <time>2018-06-23T09:22:27Z</time>
      </trkpt>
      <trkpt lat="48.39257" lon="2.70615">
        <ele>98</ele>
        <time>2018-06-23T09:22:28Z</time>
      </trkpt>
      <trkpt lat="48.39267" lon="2.70592">
        <ele>98</ele>
        <time>2018-06-23T09:22:43Z</time>
      </trkpt>
      <trkpt lat="48.39273" lon="2.70577">
        <ele>98</ele>
        <time>2018-06-23T09:22:52Z</time>
      </trkpt>
      <trkpt lat="48.39275" lon="2.70572">
        <ele>98</ele>
        <time>2018-06-23T09:22:55Z</time>
      </trkpt>
      <trkpt lat="48.39282" lon="2.70549">
        <ele>98</ele>
        <time>2018-06-23T09:23:10Z</time>
      </trkpt>
      <trkpt lat="48.39292" lon="2.70529">
        <ele>98</ele>
        <time>2018-06-23T09:23:22Z</time>
      </trkpt>
      <trkpt lat="48.39294" lon="2.70521">
        <ele>98</ele>
        <time>2018-06-23T09:23:27Z</time>
      </trkpt>
      <trkpt lat="48.39298" lon="2.70509">
        <ele>98</ele>
        <time>2018-06-23T09:23:35Z</time>
      </trkpt>
      <trkpt lat="48.39303" lon="2.70497">
        <ele>97</ele>
        <time>2018-06-23T09:23:42Z</time>
      </trkpt>
      <trkpt lat="48.39307" lon="2.70483">
        <ele>97</ele>
        <time>2018-06-23T09:23:53Z</time>
      </trkpt>
      <trkpt lat="48.39316" lon="2.70463">
        <ele>96</ele>
        <time>2018-06-23T09:24:05Z</time>
      </trkpt>
      <trkpt lat="48.39317" lon="2.7046">
        <ele>96</ele>
        <time>2018-06-23T09:24:07Z</time>
      </trkpt>
      <trkpt lat="48.39325" lon="2.70448">
        <ele>96</ele>
        <time>2018-06-23T09:24:15Z</time>
      </trkpt>
      <trkpt lat="48.39333" lon="2.7043">
        <ele>95</ele>
        <time>2018-06-23T09:24:28Z</time>
      </trkpt>
      <trkpt lat="48.39338" lon="2.70407">
        <ele>94</ele>
        <time>2018-06-23T09:24:41Z</time>
      </trkpt>
      <trkpt lat="48.39342" lon="2.70393">
        <ele>94</ele>
        <time>2018-06-23T09:24:48Z</time>
      </trkpt>
      <trkpt lat="48.39344" lon="2.70386">
        <ele>94</ele>
        <time>2018-06-23T09:24:52Z</time>
      </trkpt>
      <trkpt lat="48.3935" lon="2.7037">
        <ele>93</ele>
        <time>2018-06-23T09:25:02Z</time>
      </trkpt>
      <trkpt lat="48.39352" lon="2.70365">
        <ele>93</ele>
        <time>2018-06-23T09:25:05Z</time>
      </trkpt>
      <trkpt lat="48.39357" lon="2.70354">
        <ele>93</ele>
        <time>2018-06-23T09:25:13Z</time>
      </trkpt>
      <trkpt lat="48.39359" lon="2.70348">
        <ele>92</ele>
        <time>2018-06-23T09:25:17Z</time>
      </trkpt>
      <trkpt lat="48.39363" lon="2.7034">
        <ele>92</ele>
        <time>2018-06-23T09:25:22Z</time>
      </trkpt>
      <trkpt lat="48.39354" lon="2.70328">
        <ele>91</ele>
        <time>2018-06-23T09:25:35Z</time>
      </trkpt>
      <trkpt lat="48.39347" lon="2.70327">
        <ele>91</ele>
        <time>2018-06-23T09:25:42Z</time>
      </trkpt>
      <trkpt lat="48.39325" lon="2.70335">
        <ele>91</ele>
        <time>2018-06-23T09:26:00Z</time>
      </trkpt>
      <trkpt lat="48.39302" lon="2.70343">
        <ele>91</ele>
        <time>2018-06-23T09:26:20Z</time>
      </trkpt>
      <trkpt lat="48.39286" lon="2.70349">
        <ele>92</ele>
        <time>2018-06-23T09:26:34Z</time>
      </trkpt>
      <trkpt lat="48.39277" lon="2.70351">
        <ele>92</ele>
        <time>2018-06-23T09:26:42Z</time>
      </trkpt>
      <trkpt lat="48.39275" lon="2.70349">
        <ele>91</ele>
        <time>2018-06-23T09:26:45Z</time>
      </trkpt>
      <trkpt lat="48.39265" lon="2.70352">
        <ele>91</ele>
        <time>2018-06-23T09:26:56Z</time>
      </trkpt>
      <trkpt lat="48.39252" lon="2.70358">
        <ele>91</ele>
        <time>2018-06-23T09:27:12Z</time>
      </trkpt>
      <trkpt lat="48.39244" lon="2.70361">
        <ele>92</ele>
        <time>2018-06-23T09:27:20Z</time>
      </trkpt>
      <trkpt lat="48.39227" lon="2.70365">
        <ele>93</ele>
        <time>2018-06-23T09:27:35Z</time>
      </trkpt>
      <trkpt lat="48.39211" lon="2.7037">
        <ele>93</ele>
        <time>2018-06-23T09:27:49Z</time>
      </trkpt>
      <trkpt lat="48.39197" lon="2.7037">
        <ele>93</ele>
        <time>2018-06-23T09:28:01Z</time>
      </trkpt>
      <trkpt lat="48.39194" lon="2.70369">
        <ele>93</ele>
        <time>2018-06-23T09:28:22Z</time>
      </trkpt>
      <trkpt lat="48.3919" lon="2.70368">
        <ele>93</ele>
        <time>2018-06-23T09:28:48Z</time>
      </trkpt>
    </trkseg>
  </trk>
</gpx>